sensor_id;sensor_type;location;lat;lon;timestamp;P1;durP1;ratioP1;P2;durP2;ratioP2
4355;SDS011;64374;51.482;7.408;2023-12-14T00:02:49;7.77;;;5.80;;
4355;SDS011;64374;51.482;7.408;2023-12-14T00:05:36;8.73;;;6.30;;
4355;SDS011;64374;51.482;7.408;2023-12-14T00:08:26;7.57;;;6.60;;
4355;SDS011;64374;51.482;7.408;2023-12-14T00:11:12;9.17;;;7.00;;
4355;SDS011;64374;51.482;7.408;2023-12-14T00:14:08;10.33;;;7.53;;
4355;SDS011;64374;51.482;7.408;2023-12-14T00:16:59;10.00;;;8.00;;
4355;SDS011;64374;51.482;7.408;2023-12-14T00:19:46;9.33;;;7.03;;
4355;SDS011;64374;51.482;7.408;2023-12-14T00:22:35;11.90;;;7.97;;
4355;SDS011;64374;51.482;7.408;2023-12-14T00:25:29;11.00;;;7.07;;
4355;SDS011;64374;51.482;7.408;2023-12-14T00:28:24;6.90;;;6.20;;
4355;SDS011;64374;51.482;7.408;2023-12-14T00:31:18;8.60;;;6.60;;
4355;SDS011;64374;51.482;7.408;2023-12-14T00:34:04;13.97;;;6.90;;
4355;SDS011;64374;51.482;7.408;2023-12-14T00:36:53;10.20;;;6.50;;
4355;SDS011;64374;51.482;7.408;2023-12-14T00:39:47;10.97;;;7.80;;
4355;SDS011;64374;51.482;7.408;2023-12-14T00:42:34;16.47;;;11.53;;
4355;SDS011;64374;51.482;7.408;2023-12-14T00:45:21;15.57;;;10.80;;
4355;SDS011;64374;51.482;7.408;2023-12-14T00:48:09;15.90;;;9.60;;
4355;SDS011;64374;51.482;7.408;2023-12-14T00:50:37;13.53;;;11.20;;
4355;SDS011;64374;51.482;7.408;2023-12-14T00:53:06;19.27;;;13.43;;
4355;SDS011;64374;51.482;7.408;2023-12-14T00:55:34;17.63;;;11.97;;
4355;SDS011;64374;51.482;7.408;2023-12-14T00:58:03;11.40;;;9.20;;
4355;SDS011;64374;51.482;7.408;2023-12-14T01:00:33;9.27;;;7.80;;
4355;SDS011;64374;51.482;7.408;2023-12-14T01:03:04;9.10;;;7.40;;
4355;SDS011;64374;51.482;7.408;2023-12-14T01:05:36;6.97;;;6.10;;
4355;SDS011;64374;51.482;7.408;2023-12-14T01:08:23;9.53;;;7.67;;
4355;SDS011;64374;51.482;7.408;2023-12-14T01:11:21;13.37;;;9.67;;
4355;SDS011;64374;51.482;7.408;2023-12-14T01:14:08;12.80;;;9.47;;
4355;SDS011;64374;51.482;7.408;2023-12-14T01:16:56;9.93;;;7.60;;
4355;SDS011;64374;51.482;7.408;2023-12-14T01:19:53;13.70;;;9.00;;
4355;SDS011;64374;51.482;7.408;2023-12-14T01:22:42;10.03;;;8.30;;
4355;SDS011;64374;51.482;7.408;2023-12-14T01:25:29;10.37;;;7.50;;
4355;SDS011;64374;51.482;7.408;2023-12-14T01:28:15;12.20;;;9.40;;
4355;SDS011;64374;51.482;7.408;2023-12-14T01:31:02;12.47;;;9.03;;
4355;SDS011;64374;51.482;7.408;2023-12-14T01:34:03;11.77;;;9.50;;
4355;SDS011;64374;51.482;7.408;2023-12-14T01:36:50;15.07;;;9.83;;
4355;SDS011;64374;51.482;7.408;2023-12-14T01:39:38;10.80;;;8.37;;
4355;SDS011;64374;51.482;7.408;2023-12-14T01:42:25;10.73;;;7.70;;
4355;SDS011;64374;51.482;7.408;2023-12-14T01:45:11;9.97;;;8.07;;
4355;SDS011;64374;51.482;7.408;2023-12-14T01:48:00;10.30;;;8.20;;
4355;SDS011;64374;51.482;7.408;2023-12-14T01:50:47;13.80;;;9.07;;
4355;SDS011;64374;51.482;7.408;2023-12-14T01:53:33;13.50;;;8.40;;
4355;SDS011;64374;51.482;7.408;2023-12-14T01:56:35;12.97;;;7.57;;
4355;SDS011;64374;51.482;7.408;2023-12-14T01:59:22;12.50;;;8.43;;
4355;SDS011;64374;51.482;7.408;2023-12-14T02:02:11;11.80;;;8.57;;
4355;SDS011;64374;51.482;7.408;2023-12-14T02:04:58;12.50;;;8.30;;
4355;SDS011;64374;51.482;7.408;2023-12-14T02:07:44;10.47;;;7.10;;
4355;SDS011;64374;51.482;7.408;2023-12-14T02:10:31;9.73;;;7.70;;
4355;SDS011;64374;51.482;7.408;2023-12-14T02:13:19;12.73;;;9.50;;
4355;SDS011;64374;51.482;7.408;2023-12-14T02:16:06;11.97;;;8.10;;
4355;SDS011;64374;51.482;7.408;2023-12-14T02:18:56;13.60;;;8.60;;
4355;SDS011;64374;51.482;7.408;2023-12-14T02:21:25;8.13;;;7.33;;
4355;SDS011;64374;51.482;7.408;2023-12-14T02:24:02;10.73;;;7.50;;
4355;SDS011;64374;51.482;7.408;2023-12-14T02:26:33;9.07;;;7.87;;
4355;SDS011;64374;51.482;7.408;2023-12-14T02:29:04;11.17;;;7.60;;
4355;SDS011;64374;51.482;7.408;2023-12-14T02:31:32;8.80;;;6.97;;
4355;SDS011;64374;51.482;7.408;2023-12-14T02:34:02;10.20;;;7.40;;
4355;SDS011;64374;51.482;7.408;2023-12-14T02:36:31;8.90;;;6.60;;
4355;SDS011;64374;51.482;7.408;2023-12-14T02:38:59;9.80;;;6.70;;
4355;SDS011;64374;51.482;7.408;2023-12-14T02:41:28;8.50;;;6.60;;
4355;SDS011;64374;51.482;7.408;2023-12-14T02:43:57;12.20;;;6.57;;
4355;SDS011;64374;51.482;7.408;2023-12-14T02:46:25;9.53;;;6.90;;
4355;SDS011;64374;51.482;7.408;2023-12-14T02:48:55;9.10;;;6.90;;
4355;SDS011;64374;51.482;7.408;2023-12-14T02:51:25;14.00;;;7.77;;
4355;SDS011;64374;51.482;7.408;2023-12-14T02:53:54;9.30;;;6.63;;
4355;SDS011;64374;51.482;7.408;2023-12-14T02:56:23;10.30;;;7.97;;
4355;SDS011;64374;51.482;7.408;2023-12-14T02:58:53;13.23;;;8.17;;
4355;SDS011;64374;51.482;7.408;2023-12-14T03:01:21;12.53;;;8.63;;
4355;SDS011;64374;51.482;7.408;2023-12-14T03:03:51;12.10;;;8.50;;
4355;SDS011;64374;51.482;7.408;2023-12-14T03:06:22;15.47;;;9.57;;
4355;SDS011;64374;51.482;7.408;2023-12-14T03:09:11;12.87;;;9.60;;
4355;SDS011;64374;51.482;7.408;2023-12-14T03:11:57;13.30;;;9.43;;
4355;SDS011;64374;51.482;7.408;2023-12-14T03:14:47;13.53;;;10.10;;
4355;SDS011;64374;51.482;7.408;2023-12-14T03:17:36;14.37;;;8.80;;
4355;SDS011;64374;51.482;7.408;2023-12-14T03:20:25;12.83;;;9.30;;
4355;SDS011;64374;51.482;7.408;2023-12-14T03:23:14;12.93;;;8.93;;
4355;SDS011;64374;51.482;7.408;2023-12-14T03:26:00;18.47;;;10.43;;
4355;SDS011;64374;51.482;7.408;2023-12-14T03:28:50;14.50;;;9.47;;
4355;SDS011;64374;51.482;7.408;2023-12-14T03:31:40;16.70;;;9.33;;
4355;SDS011;64374;51.482;7.408;2023-12-14T03:34:26;12.53;;;9.67;;
4355;SDS011;64374;51.482;7.408;2023-12-14T03:37:14;17.57;;;12.30;;
4355;SDS011;64374;51.482;7.408;2023-12-14T03:40:02;19.03;;;12.43;;
4355;SDS011;64374;51.482;7.408;2023-12-14T03:42:49;19.70;;;11.53;;
4355;SDS011;64374;51.482;7.408;2023-12-14T03:45:38;19.50;;;12.10;;
4355;SDS011;64374;51.482;7.408;2023-12-14T03:48:26;15.27;;;10.83;;
4355;SDS011;64374;51.482;7.408;2023-12-14T03:51:13;19.03;;;11.73;;
4355;SDS011;64374;51.482;7.408;2023-12-14T03:54:04;13.77;;;9.53;;
4355;SDS011;64374;51.482;7.408;2023-12-14T03:56:50;15.60;;;10.60;;
4355;SDS011;64374;51.482;7.408;2023-12-14T03:59:39;20.00;;;11.07;;
4355;SDS011;64374;51.482;7.408;2023-12-14T04:02:28;15.03;;;10.40;;
4355;SDS011;64374;51.482;7.408;2023-12-14T04:05:17;13.47;;;9.77;;
4355;SDS011;64374;51.482;7.408;2023-12-14T04:08:04;15.97;;;10.57;;
4355;SDS011;64374;51.482;7.408;2023-12-14T04:10:50;15.63;;;10.37;;
4355;SDS011;64374;51.482;7.408;2023-12-14T04:13:38;16.73;;;9.80;;
4355;SDS011;64374;51.482;7.408;2023-12-14T04:16:25;13.67;;;9.50;;
4355;SDS011;64374;51.482;7.408;2023-12-14T04:19:13;12.90;;;8.73;;
4355;SDS011;64374;51.482;7.408;2023-12-14T04:22:01;13.10;;;9.57;;
4355;SDS011;64374;51.482;7.408;2023-12-14T04:24:52;11.33;;;7.97;;
4355;SDS011;64374;51.482;7.408;2023-12-14T04:27:38;14.20;;;8.40;;
4355;SDS011;64374;51.482;7.408;2023-12-14T04:30:32;11.47;;;7.90;;
4355;SDS011;64374;51.482;7.408;2023-12-14T04:33:19;12.83;;;8.60;;
4355;SDS011;64374;51.482;7.408;2023-12-14T04:36:08;9.77;;;6.40;;
4355;SDS011;64374;51.482;7.408;2023-12-14T04:39:01;10.10;;;6.87;;
4355;SDS011;64374;51.482;7.408;2023-12-14T04:41:48;7.50;;;6.13;;
4355;SDS011;64374;51.482;7.408;2023-12-14T04:44:34;8.50;;;6.80;;
4355;SDS011;64374;51.482;7.408;2023-12-14T04:47:21;9.80;;;7.27;;
4355;SDS011;64374;51.482;7.408;2023-12-14T04:50:21;8.53;;;6.57;;
4355;SDS011;64374;51.482;7.408;2023-12-14T04:53:08;7.13;;;4.80;;
4355;SDS011;64374;51.482;7.408;2023-12-14T04:56:13;5.50;;;4.77;;
4355;SDS011;64374;51.482;7.408;2023-12-14T04:59:03;7.10;;;5.23;;
4355;SDS011;64374;51.482;7.408;2023-12-14T05:01:55;5.77;;;4.17;;
4355;SDS011;64374;51.482;7.408;2023-12-14T05:04:42;6.37;;;4.80;;
4355;SDS011;64374;51.482;7.408;2023-12-14T05:07:32;6.00;;;4.60;;
4355;SDS011;64374;51.482;7.408;2023-12-14T05:10:18;7.00;;;5.63;;
4355;SDS011;64374;51.482;7.408;2023-12-14T05:13:11;4.60;;;4.10;;
4355;SDS011;64374;51.482;7.408;2023-12-14T05:15:58;6.60;;;5.80;;
4355;SDS011;64374;51.482;7.408;2023-12-14T05:18:48;11.70;;;5.70;;
4355;SDS011;64374;51.482;7.408;2023-12-14T05:21:38;7.93;;;5.70;;
4355;SDS011;64374;51.482;7.408;2023-12-14T05:24:24;7.57;;;5.50;;
4355;SDS011;64374;51.482;7.408;2023-12-14T05:27:25;6.37;;;5.10;;
4355;SDS011;64374;51.482;7.408;2023-12-14T05:30:16;7.77;;;6.17;;
4355;SDS011;64374;51.482;7.408;2023-12-14T05:33:03;9.37;;;5.80;;
4355;SDS011;64374;51.482;7.408;2023-12-14T05:35:49;8.50;;;5.80;;
4355;SDS011;64374;51.482;7.408;2023-12-14T05:38:40;6.70;;;5.80;;
4355;SDS011;64374;51.482;7.408;2023-12-14T05:41:27;8.13;;;6.30;;
4355;SDS011;64374;51.482;7.408;2023-12-14T05:44:14;6.70;;;6.00;;
4355;SDS011;64374;51.482;7.408;2023-12-14T05:47:02;8.70;;;5.73;;
4355;SDS011;64374;51.482;7.408;2023-12-14T05:49:51;10.87;;;6.57;;
4355;SDS011;64374;51.482;7.408;2023-12-14T05:52:38;8.33;;;6.63;;
4355;SDS011;64374;51.482;7.408;2023-12-14T05:55:25;7.10;;;5.67;;
4355;SDS011;64374;51.482;7.408;2023-12-14T05:58:24;8.43;;;6.07;;
4355;SDS011;64374;51.482;7.408;2023-12-14T06:01:10;8.67;;;6.57;;
4355;SDS011;64374;51.482;7.408;2023-12-14T06:04:03;9.13;;;6.90;;
4355;SDS011;64374;51.482;7.408;2023-12-14T06:06:50;9.20;;;6.60;;
4355;SDS011;64374;51.482;7.408;2023-12-14T06:09:39;10.07;;;6.50;;
4355;SDS011;64374;51.482;7.408;2023-12-14T06:12:26;10.10;;;7.73;;
4355;SDS011;64374;51.482;7.408;2023-12-14T06:15:16;11.10;;;8.07;;
4355;SDS011;64374;51.482;7.408;2023-12-14T06:18:02;9.50;;;7.00;;
4355;SDS011;64374;51.482;7.408;2023-12-14T06:20:55;10.13;;;7.27;;
4355;SDS011;64374;51.482;7.408;2023-12-14T06:23:42;12.97;;;7.37;;
4355;SDS011;64374;51.482;7.408;2023-12-14T06:26:30;10.30;;;7.43;;
4355;SDS011;64374;51.482;7.408;2023-12-14T06:29:20;9.60;;;7.03;;
4355;SDS011;64374;51.482;7.408;2023-12-14T06:32:13;14.57;;;9.07;;
4355;SDS011;64374;51.482;7.408;2023-12-14T06:35:00;11.13;;;7.70;;
4355;SDS011;64374;51.482;7.408;2023-12-14T06:37:57;18.40;;;9.20;;
4355;SDS011;64374;51.482;7.408;2023-12-14T06:40:43;13.97;;;7.70;;
4355;SDS011;64374;51.482;7.408;2023-12-14T06:43:12;12.90;;;9.30;;
4355;SDS011;64374;51.482;7.408;2023-12-14T06:45:41;16.87;;;9.47;;
4355;SDS011;64374;51.482;7.408;2023-12-14T06:48:11;12.27;;;9.00;;
4355;SDS011;64374;51.482;7.408;2023-12-14T06:50:41;12.43;;;9.00;;
4355;SDS011;64374;51.482;7.408;2023-12-14T06:53:15;14.57;;;8.73;;
4355;SDS011;64374;51.482;7.408;2023-12-14T06:55:43;14.73;;;10.63;;
4355;SDS011;64374;51.482;7.408;2023-12-14T06:58:12;14.07;;;11.20;;
4355;SDS011;64374;51.482;7.408;2023-12-14T07:00:40;15.10;;;10.70;;
4355;SDS011;64374;51.482;7.408;2023-12-14T07:03:08;18.93;;;11.57;;
4355;SDS011;64374;51.482;7.408;2023-12-14T07:05:36;19.00;;;10.57;;
4355;SDS011;64374;51.482;7.408;2023-12-14T07:08:04;13.13;;;9.77;;
4355;SDS011;64374;51.482;7.408;2023-12-14T07:10:52;18.73;;;10.67;;
4355;SDS011;64374;51.482;7.408;2023-12-14T07:13:40;13.80;;;9.50;;
4355;SDS011;64374;51.482;7.408;2023-12-14T07:16:26;16.43;;;11.57;;
4355;SDS011;64374;51.482;7.408;2023-12-14T07:19:15;15.03;;;10.47;;
4355;SDS011;64374;51.482;7.408;2023-12-14T07:21:43;16.03;;;9.40;;
4355;SDS011;64374;51.482;7.408;2023-12-14T07:24:11;14.33;;;9.80;;
4355;SDS011;64374;51.482;7.408;2023-12-14T07:26:43;19.00;;;11.40;;
4355;SDS011;64374;51.482;7.408;2023-12-14T07:29:11;17.03;;;10.30;;
4355;SDS011;64374;51.482;7.408;2023-12-14T07:31:39;12.07;;;9.30;;
4355;SDS011;64374;51.482;7.408;2023-12-14T07:34:07;13.00;;;8.97;;
4355;SDS011;64374;51.482;7.408;2023-12-14T07:36:37;14.33;;;9.47;;
4355;SDS011;64374;51.482;7.408;2023-12-14T07:39:13;13.97;;;9.87;;
4355;SDS011;64374;51.482;7.408;2023-12-14T07:41:43;14.93;;;10.00;;
4355;SDS011;64374;51.482;7.408;2023-12-14T07:44:16;17.23;;;10.63;;
4355;SDS011;64374;51.482;7.408;2023-12-14T07:46:52;14.07;;;8.97;;
4355;SDS011;64374;51.482;7.408;2023-12-14T07:49:22;14.57;;;10.03;;
4355;SDS011;64374;51.482;7.408;2023-12-14T07:51:50;16.80;;;10.33;;
4355;SDS011;64374;51.482;7.408;2023-12-14T07:54:22;16.27;;;10.60;;
4355;SDS011;64374;51.482;7.408;2023-12-14T07:56:54;13.70;;;10.10;;
4355;SDS011;64374;51.482;7.408;2023-12-14T07:59:22;15.73;;;10.60;;
4355;SDS011;64374;51.482;7.408;2023-12-14T08:01:51;16.47;;;10.93;;
4355;SDS011;64374;51.482;7.408;2023-12-14T08:04:20;17.23;;;12.13;;
4355;SDS011;64374;51.482;7.408;2023-12-14T08:06:48;19.57;;;11.07;;
4355;SDS011;64374;51.482;7.408;2023-12-14T08:09:34;16.57;;;11.77;;
4355;SDS011;64374;51.482;7.408;2023-12-14T08:12:22;19.40;;;14.40;;
4355;SDS011;64374;51.482;7.408;2023-12-14T08:15:09;20.30;;;12.37;;
4355;SDS011;64374;51.482;7.408;2023-12-14T08:17:57;15.37;;;11.10;;
4355;SDS011;64374;51.482;7.408;2023-12-14T08:20:51;18.70;;;11.70;;
4355;SDS011;64374;51.482;7.408;2023-12-14T08:23:41;15.23;;;11.13;;
4355;SDS011;64374;51.482;7.408;2023-12-14T08:26:30;16.60;;;11.37;;
4355;SDS011;64374;51.482;7.408;2023-12-14T08:29:18;21.33;;;11.43;;
4355;SDS011;64374;51.482;7.408;2023-12-14T08:32:05;16.90;;;11.00;;
4355;SDS011;64374;51.482;7.408;2023-12-14T08:34:55;20.17;;;12.90;;
4355;SDS011;64374;51.482;7.408;2023-12-14T08:37:42;18.53;;;10.30;;
4355;SDS011;64374;51.482;7.408;2023-12-14T08:40:31;16.03;;;10.80;;
4355;SDS011;64374;51.482;7.408;2023-12-14T08:43:18;12.63;;;9.87;;
4355;SDS011;64374;51.482;7.408;2023-12-14T08:46:10;12.47;;;9.50;;
4355;SDS011;64374;51.482;7.408;2023-12-14T08:48:57;15.40;;;10.30;;
4355;SDS011;64374;51.482;7.408;2023-12-14T08:51:44;13.80;;;10.30;;
4355;SDS011;64374;51.482;7.408;2023-12-14T08:54:33;13.63;;;9.03;;
4355;SDS011;64374;51.482;7.408;2023-12-14T08:57:20;14.77;;;10.30;;
4355;SDS011;64374;51.482;7.408;2023-12-14T09:00:07;16.53;;;9.63;;
4355;SDS011;64374;51.482;7.408;2023-12-14T09:02:55;15.57;;;10.53;;
4355;SDS011;64374;51.482;7.408;2023-12-14T09:05:42;14.70;;;9.57;;
4355;SDS011;64374;51.482;7.408;2023-12-14T09:08:32;15.70;;;11.40;;
4355;SDS011;64374;51.482;7.408;2023-12-14T09:11:21;15.80;;;11.10;;
4355;SDS011;64374;51.482;7.408;2023-12-14T09:14:09;15.53;;;11.20;;
4355;SDS011;64374;51.482;7.408;2023-12-14T09:16:55;16.77;;;11.77;;
4355;SDS011;64374;51.482;7.408;2023-12-14T09:19:43;16.73;;;11.00;;
4355;SDS011;64374;51.482;7.408;2023-12-14T09:22:29;15.07;;;10.20;;
4355;SDS011;64374;51.482;7.408;2023-12-14T09:25:16;17.20;;;12.20;;
4355;SDS011;64374;51.482;7.408;2023-12-14T09:28:03;14.90;;;10.90;;
4355;SDS011;64374;51.482;7.408;2023-12-14T09:30:50;16.77;;;11.90;;
4355;SDS011;64374;51.482;7.408;2023-12-14T09:33:37;14.10;;;10.00;;
4355;SDS011;64374;51.482;7.408;2023-12-14T09:36:25;20.60;;;12.83;;
4355;SDS011;64374;51.482;7.408;2023-12-14T09:39:12;19.10;;;13.00;;
4355;SDS011;64374;51.482;7.408;2023-12-14T09:42:01;16.87;;;11.47;;
4355;SDS011;64374;51.482;7.408;2023-12-14T09:44:34;16.27;;;13.27;;
4355;SDS011;64374;51.482;7.408;2023-12-14T09:47:06;21.40;;;12.87;;
4355;SDS011;64374;51.482;7.408;2023-12-14T09:49:34;17.43;;;12.53;;
4355;SDS011;64374;51.482;7.408;2023-12-14T09:52:06;18.50;;;12.83;;
4355;SDS011;64374;51.482;7.408;2023-12-14T09:54:34;21.30;;;13.90;;
4355;SDS011;64374;51.482;7.408;2023-12-14T09:57:02;20.40;;;13.30;;
4355;SDS011;64374;51.482;7.408;2023-12-14T09:59:31;17.00;;;12.23;;
4355;SDS011;64374;51.482;7.408;2023-12-14T10:02:08;20.77;;;13.77;;
4355;SDS011;64374;51.482;7.408;2023-12-14T10:04:42;18.10;;;12.20;;
4355;SDS011;64374;51.482;7.408;2023-12-14T10:07:12;23.17;;;14.03;;
4355;SDS011;64374;51.482;7.408;2023-12-14T10:09:42;20.23;;;13.63;;
4355;SDS011;64374;51.482;7.408;2023-12-14T10:12:10;16.37;;;12.07;;
4355;SDS011;64374;51.482;7.408;2023-12-14T10:14:48;17.13;;;12.00;;
4355;SDS011;64374;51.482;7.408;2023-12-14T10:17:32;20.33;;;13.20;;
4355;SDS011;64374;51.482;7.408;2023-12-14T10:20:03;17.97;;;14.10;;
4355;SDS011;64374;51.482;7.408;2023-12-14T10:22:36;20.47;;;13.07;;
4355;SDS011;64374;51.482;7.408;2023-12-14T10:25:04;21.33;;;12.80;;
4355;SDS011;64374;51.482;7.408;2023-12-14T10:27:37;18.73;;;12.57;;
4355;SDS011;64374;51.482;7.408;2023-12-14T10:30:06;19.87;;;13.83;;
4355;SDS011;64374;51.482;7.408;2023-12-14T10:32:38;16.67;;;13.13;;
4355;SDS011;64374;51.482;7.408;2023-12-14T10:35:26;19.70;;;13.57;;
4355;SDS011;64374;51.482;7.408;2023-12-14T10:38:14;24.73;;;15.17;;
4355;SDS011;64374;51.482;7.408;2023-12-14T10:41:03;21.67;;;13.03;;
4355;SDS011;64374;51.482;7.408;2023-12-14T10:43:53;17.10;;;12.47;;
4355;SDS011;64374;51.482;7.408;2023-12-14T10:47:01;21.53;;;14.53;;
4355;SDS011;64374;51.482;7.408;2023-12-14T10:49:51;19.37;;;12.20;;
4355;SDS011;64374;51.482;7.408;2023-12-14T10:52:38;19.20;;;12.17;;
4355;SDS011;64374;51.482;7.408;2023-12-14T10:55:29;19.93;;;13.47;;
4355;SDS011;64374;51.482;7.408;2023-12-14T10:58:31;21.50;;;13.50;;
4355;SDS011;64374;51.482;7.408;2023-12-14T11:01:32;18.67;;;13.23;;
4355;SDS011;64374;51.482;7.408;2023-12-14T11:04:23;21.33;;;12.40;;
4355;SDS011;64374;51.482;7.408;2023-12-14T11:07:12;23.33;;;14.47;;
4355;SDS011;64374;51.482;7.408;2023-12-14T11:10:01;19.43;;;12.73;;
4355;SDS011;64374;51.482;7.408;2023-12-14T11:12:53;17.50;;;12.60;;
4355;SDS011;64374;51.482;7.408;2023-12-14T11:15:45;23.10;;;13.57;;
4355;SDS011;64374;51.482;7.408;2023-12-14T11:18:35;26.70;;;15.20;;
4355;SDS011;64374;51.482;7.408;2023-12-14T11:21:23;20.73;;;13.37;;
4355;SDS011;64374;51.482;7.408;2023-12-14T11:24:11;21.87;;;13.03;;
4355;SDS011;64374;51.482;7.408;2023-12-14T11:26:58;18.67;;;12.33;;
4355;SDS011;64374;51.482;7.408;2023-12-14T11:29:49;20.27;;;13.40;;
4355;SDS011;64374;51.482;7.408;2023-12-14T11:32:36;20.57;;;12.40;;
4355;SDS011;64374;51.482;7.408;2023-12-14T11:35:23;20.17;;;13.10;;
4355;SDS011;64374;51.482;7.408;2023-12-14T11:38:13;20.43;;;12.20;;
4355;SDS011;64374;51.482;7.408;2023-12-14T11:41:00;17.03;;;11.60;;
4355;SDS011;64374;51.482;7.408;2023-12-14T11:43:49;21.80;;;13.50;;
4355;SDS011;64374;51.482;7.408;2023-12-14T11:46:37;21.60;;;13.70;;
4355;SDS011;64374;51.482;7.408;2023-12-14T11:49:27;19.90;;;12.57;;
4355;SDS011;64374;51.482;7.408;2023-12-14T11:52:15;16.43;;;12.00;;
4355;SDS011;64374;51.482;7.408;2023-12-14T11:55:03;19.10;;;11.97;;
4355;SDS011;64374;51.482;7.408;2023-12-14T11:57:50;20.07;;;12.17;;
4355;SDS011;64374;51.482;7.408;2023-12-14T12:00:40;21.43;;;13.13;;
4355;SDS011;64374;51.482;7.408;2023-12-14T12:03:32;20.03;;;12.20;;
4355;SDS011;64374;51.482;7.408;2023-12-14T12:06:20;19.50;;;12.10;;
4355;SDS011;64374;51.482;7.408;2023-12-14T12:09:08;22.93;;;13.40;;
4355;SDS011;64374;51.482;7.408;2023-12-14T12:11:56;19.37;;;12.10;;
4355;SDS011;64374;51.482;7.408;2023-12-14T12:14:44;20.00;;;11.83;;
4355;SDS011;64374;51.482;7.408;2023-12-14T12:17:30;19.83;;;13.03;;
4355;SDS011;64374;51.482;7.408;2023-12-14T12:20:24;27.07;;;12.60;;
4355;SDS011;64374;51.482;7.408;2023-12-14T12:23:12;20.90;;;12.63;;
4355;SDS011;64374;51.482;7.408;2023-12-14T12:26:01;24.17;;;13.83;;
4355;SDS011;64374;51.482;7.408;2023-12-14T12:28:48;19.73;;;14.07;;
4355;SDS011;64374;51.482;7.408;2023-12-14T12:31:35;19.77;;;13.90;;
4355;SDS011;64374;51.482;7.408;2023-12-14T12:34:22;24.00;;;14.77;;
4355;SDS011;64374;51.482;7.408;2023-12-14T12:37:10;17.90;;;13.00;;
4355;SDS011;64374;51.482;7.408;2023-12-14T12:39:56;22.33;;;12.93;;
4355;SDS011;64374;51.482;7.408;2023-12-14T12:42:57;19.77;;;13.07;;
4355;SDS011;64374;51.482;7.408;2023-12-14T12:45:44;20.87;;;13.17;;
4355;SDS011;64374;51.482;7.408;2023-12-14T12:48:31;20.60;;;13.43;;
4355;SDS011;64374;51.482;7.408;2023-12-14T12:51:25;17.90;;;13.97;;
4355;SDS011;64374;51.482;7.408;2023-12-14T12:54:14;18.97;;;12.27;;
4355;SDS011;64374;51.482;7.408;2023-12-14T12:57:01;24.10;;;15.40;;
4355;SDS011;64374;51.482;7.408;2023-12-14T12:59:48;25.60;;;13.77;;
4355;SDS011;64374;51.482;7.408;2023-12-14T13:02:37;25.50;;;14.30;;
4355;SDS011;64374;51.482;7.408;2023-12-14T13:05:26;22.87;;;14.13;;
4355;SDS011;64374;51.482;7.408;2023-12-14T13:08:13;23.90;;;13.90;;
4355;SDS011;64374;51.482;7.408;2023-12-14T13:11:01;27.70;;;15.50;;
4355;SDS011;64374;51.482;7.408;2023-12-14T13:13:49;24.23;;;13.83;;
4355;SDS011;64374;51.482;7.408;2023-12-14T13:16:36;24.43;;;14.00;;
4355;SDS011;64374;51.482;7.408;2023-12-14T13:19:23;23.03;;;14.37;;
4355;SDS011;64374;51.482;7.408;2023-12-14T13:22:11;24.43;;;14.57;;
4355;SDS011;64374;51.482;7.408;2023-12-14T13:24:57;21.37;;;12.80;;
4355;SDS011;64374;51.482;7.408;2023-12-14T13:27:46;17.03;;;12.10;;
4355;SDS011;64374;51.482;7.408;2023-12-14T13:30:34;22.13;;;14.53;;
4355;SDS011;64374;51.482;7.408;2023-12-14T13:33:21;20.50;;;12.90;;
4355;SDS011;64374;51.482;7.408;2023-12-14T13:36:11;20.47;;;14.00;;
4355;SDS011;64374;51.482;7.408;2023-12-14T13:38:59;24.50;;;14.40;;
4355;SDS011;64374;51.482;7.408;2023-12-14T13:41:49;21.73;;;14.17;;
4355;SDS011;64374;51.482;7.408;2023-12-14T13:44:40;29.37;;;15.83;;
4355;SDS011;64374;51.482;7.408;2023-12-14T13:47:31;24.23;;;15.40;;
4355;SDS011;64374;51.482;7.408;2023-12-14T13:50:18;24.60;;;14.03;;
4355;SDS011;64374;51.482;7.408;2023-12-14T13:53:07;20.73;;;14.00;;
4355;SDS011;64374;51.482;7.408;2023-12-14T13:55:54;21.03;;;13.50;;
4355;SDS011;64374;51.482;7.408;2023-12-14T13:58:43;24.43;;;17.17;;
4355;SDS011;64374;51.482;7.408;2023-12-14T14:01:31;24.53;;;15.27;;
4355;SDS011;64374;51.482;7.408;2023-12-14T14:04:21;22.50;;;14.87;;
4355;SDS011;64374;51.482;7.408;2023-12-14T14:07:08;20.00;;;13.80;;
4355;SDS011;64374;51.482;7.408;2023-12-14T14:09:58;20.30;;;13.40;;
4355;SDS011;64374;51.482;7.408;2023-12-14T14:12:47;18.47;;;12.77;;
4355;SDS011;64374;51.482;7.408;2023-12-14T14:15:33;18.63;;;12.93;;
4355;SDS011;64374;51.482;7.408;2023-12-14T14:18:22;20.20;;;12.50;;
4355;SDS011;64374;51.482;7.408;2023-12-14T14:21:08;19.07;;;11.50;;
4355;SDS011;64374;51.482;7.408;2023-12-14T14:23:55;17.50;;;12.20;;
4355;SDS011;64374;51.482;7.408;2023-12-14T14:26:45;17.27;;;11.93;;
4355;SDS011;64374;51.482;7.408;2023-12-14T14:29:32;17.30;;;11.47;;
4355;SDS011;64374;51.482;7.408;2023-12-14T14:32:21;15.83;;;11.53;;
4355;SDS011;64374;51.482;7.408;2023-12-14T14:35:09;16.83;;;11.20;;
4355;SDS011;64374;51.482;7.408;2023-12-14T14:37:56;15.40;;;10.07;;
4355;SDS011;64374;51.482;7.408;2023-12-14T14:40:46;16.17;;;11.27;;
4355;SDS011;64374;51.482;7.408;2023-12-14T14:43:33;24.70;;;16.47;;
4355;SDS011;64374;51.482;7.408;2023-12-14T14:46:22;24.70;;;18.23;;
4355;SDS011;64374;51.482;7.408;2023-12-14T14:49:11;17.83;;;11.80;;
4355;SDS011;64374;51.482;7.408;2023-12-14T14:51:59;15.40;;;10.80;;
4355;SDS011;64374;51.482;7.408;2023-12-14T14:54:46;19.37;;;12.60;;
4355;SDS011;64374;51.482;7.408;2023-12-14T14:57:33;20.03;;;13.03;;
4355;SDS011;64374;51.482;7.408;2023-12-14T15:00:20;22.70;;;14.50;;
4355;SDS011;64374;51.482;7.408;2023-12-14T15:03:22;18.10;;;11.60;;
4355;SDS011;64374;51.482;7.408;2023-12-14T15:06:09;19.70;;;14.33;;
4355;SDS011;64374;51.482;7.408;2023-12-14T15:09:00;29.70;;;19.03;;
4355;SDS011;64374;51.482;7.408;2023-12-14T15:11:54;26.40;;;17.20;;
4355;SDS011;64374;51.482;7.408;2023-12-14T15:14:40;24.70;;;17.23;;
4355;SDS011;64374;51.482;7.408;2023-12-14T15:17:29;29.00;;;16.90;;
4355;SDS011;64374;51.482;7.408;2023-12-14T15:20:19;19.27;;;13.13;;
4355;SDS011;64374;51.482;7.408;2023-12-14T15:23:08;18.63;;;12.53;;
4355;SDS011;64374;51.482;7.408;2023-12-14T15:25:56;30.97;;;13.37;;
4355;SDS011;64374;51.482;7.408;2023-12-14T15:28:42;18.93;;;12.57;;
4355;SDS011;64374;51.482;7.408;2023-12-14T15:31:33;17.17;;;12.30;;
4355;SDS011;64374;51.482;7.408;2023-12-14T15:34:20;21.50;;;14.47;;
4355;SDS011;64374;51.482;7.408;2023-12-14T15:37:07;18.20;;;12.87;;
4355;SDS011;64374;51.482;7.408;2023-12-14T15:39:54;22.57;;;13.27;;
4355;SDS011;64374;51.482;7.408;2023-12-14T15:42:42;19.50;;;12.80;;
4355;SDS011;64374;51.482;7.408;2023-12-14T15:45:35;19.30;;;12.50;;
4355;SDS011;64374;51.482;7.408;2023-12-14T15:48:22;19.23;;;12.80;;
4355;SDS011;64374;51.482;7.408;2023-12-14T15:51:09;30.90;;;16.20;;
4355;SDS011;64374;51.482;7.408;2023-12-14T15:53:55;23.30;;;15.07;;
4355;SDS011;64374;51.482;7.408;2023-12-14T15:56:44;20.93;;;14.17;;
4355;SDS011;64374;51.482;7.408;2023-12-14T15:59:32;23.30;;;15.07;;
4355;SDS011;64374;51.482;7.408;2023-12-14T16:02:19;26.80;;;14.47;;
4355;SDS011;64374;51.482;7.408;2023-12-14T16:05:08;22.17;;;15.23;;
4355;SDS011;64374;51.482;7.408;2023-12-14T16:07:58;23.97;;;14.43;;
4355;SDS011;64374;51.482;7.408;2023-12-14T16:10:44;24.10;;;15.00;;
4355;SDS011;64374;51.482;7.408;2023-12-14T16:13:35;23.07;;;15.10;;
4355;SDS011;64374;51.482;7.408;2023-12-14T16:16:22;26.73;;;16.33;;
4355;SDS011;64374;51.482;7.408;2023-12-14T16:19:09;23.87;;;15.80;;
4355;SDS011;64374;51.482;7.408;2023-12-14T16:21:58;20.83;;;12.50;;
4355;SDS011;64374;51.482;7.408;2023-12-14T16:24:47;17.40;;;11.07;;
4355;SDS011;64374;51.482;7.408;2023-12-14T16:27:34;13.63;;;9.10;;
4355;SDS011;64374;51.482;7.408;2023-12-14T16:30:20;14.73;;;9.70;;